DLH1055 EDDF-VHHH
Flight info
| Callsign | DLH1055 |
|---|---|
| Flight time | N/A |
| Altitude | 31000 |
| Route | SULUS7S SULUS Z650 VEMUT/N0485F350 DCT PEPIK DCT NORAH/N0483F370 DCT BUDOP DCT LUGEB DCT UDROS UM859 KARDE UL851 TBN UM11 REBLO M11 LUSAL N199 RASAM L88 METKA/N0485F390 B476 DARVA/K0895F390 T898 OGOLI N193 SR L163 TISIB L141 KAMUD/K0900S1190 W186 SADAN Y1 DUMIN/K0902S1250 Y1 OMBON W245 OVRAL B330 KWE W181 DUDIT A599 POU R473 SIERA |
| Aircraft | A359/H-SDE2E3GHIJ3J4J5LM1ORWXY/LB1D1 |
Departure
| Time | N/A |
|---|---|
| Airport | Frankfurt Main Airport (EDDF) |
Arrival
| Time | 2026-05-04 06:42 |
|---|---|
| Airport | Hong Kong International Airport (VHHH) |
| Time | Latitude | Longitude | Altitude | Speed | Heading |
|---|---|---|---|---|---|
| 2026-05-04 04:51 | 30.28411 | 104.75284 | 41128 ft | 513 kts | 182° |
| 2026-05-04 04:51 | 30.24855 | 104.75679 | 41129 ft | 513 kts | 183° |
| 2026-05-04 04:52 | 30.17741 | 104.76469 | 41129 ft | 513 kts | 183° |
| 2026-05-04 04:52 | 30.10622 | 104.77257 | 41128 ft | 513 kts | 183° |
| 2026-05-04 04:53 | 30.03524 | 104.78043 | 41129 ft | 512 kts | 183° |
| 2026-05-04 04:53 | 29.96473 | 104.78827 | 41128 ft | 512 kts | 183° |
| 2026-05-04 04:54 | 29.89386 | 104.79611 | 41128 ft | 511 kts | 183° |
| 2026-05-04 04:54 | 29.82314 | 104.80387 | 41130 ft | 510 kts | 183° |
| 2026-05-04 04:55 | 29.75242 | 104.81164 | 41128 ft | 510 kts | 183° |
| 2026-05-04 04:55 | 29.68178 | 104.81940 | 41128 ft | 510 kts | 183° |
| 2026-05-04 04:56 | 29.61104 | 104.82718 | 41129 ft | 510 kts | 183° |
| 2026-05-04 04:56 | 29.54030 | 104.83494 | 41137 ft | 510 kts | 183° |
| 2026-05-04 04:57 | 29.46955 | 104.84269 | 41136 ft | 510 kts | 183° |
| 2026-05-04 04:57 | 29.39890 | 104.85042 | 41138 ft | 510 kts | 183° |
| 2026-05-04 04:58 | 29.32827 | 104.86340 | 41147 ft | 524 kts | 171° |
| 2026-05-04 04:58 | 29.25998 | 104.89372 | 41146 ft | 532 kts | 164° |
| 2026-05-04 04:59 | 29.19214 | 104.92820 | 41146 ft | 533 kts | 163° |
| 2026-05-04 04:59 | 29.12448 | 104.96301 | 41146 ft | 532 kts | 163° |
| 2026-05-04 05:00 | 29.05684 | 104.99745 | 41147 ft | 533 kts | 163° |
| 2026-05-04 05:01 | 28.95500 | 105.04885 | 41155 ft | 533 kts | 163° |
| 2026-05-04 05:01 | 28.88714 | 105.08297 | 41156 ft | 533 kts | 163° |
| 2026-05-04 05:02 | 28.81921 | 105.11686 | 41156 ft | 533 kts | 163° |
| 2026-05-04 05:02 | 28.75146 | 105.15113 | 41155 ft | 535 kts | 161° |
| 2026-05-04 05:03 | 28.68573 | 105.19065 | 41156 ft | 539 kts | 158° |
| 2026-05-04 05:04 | 28.55425 | 105.27274 | 41165 ft | 538 kts | 159° |
| 2026-05-04 05:04 | 28.48820 | 105.31273 | 41165 ft | 538 kts | 159° |
| 2026-05-04 05:06 | 28.22366 | 105.47166 | 41174 ft | 538 kts | 159° |
| 2026-05-04 05:07 | 28.15778 | 105.51115 | 41178 ft | 538 kts | 159° |
| 2026-05-04 05:07 | 28.09159 | 105.55069 | 41181 ft | 537 kts | 159° |
| 2026-05-04 05:09 | 27.81138 | 105.61474 | 41193 ft | 521 kts | 172° |
| 2026-05-04 05:09 | 27.77694 | 105.62855 | 41201 ft | 531 kts | 162° |
| 2026-05-04 05:10 | 27.71045 | 105.66633 | 41203 ft | 536 kts | 158° |
| 2026-05-04 05:10 | 27.64471 | 105.70636 | 41203 ft | 536 kts | 160° |
| 2026-05-04 05:11 | 27.57822 | 105.74276 | 41211 ft | 533 kts | 162° |
| 2026-05-04 05:11 | 27.51109 | 105.77820 | 41212 ft | 533 kts | 162° |
| 2026-05-04 05:12 | 27.44399 | 105.81392 | 41218 ft | 533 kts | 161° |
| 2026-05-04 05:12 | 27.37708 | 105.84990 | 41221 ft | 532 kts | 161° |
| 2026-05-04 05:13 | 27.32148 | 105.87985 | 41220 ft | 532 kts | 161° |
| 2026-05-04 05:13 | 27.25482 | 105.91569 | 41220 ft | 531 kts | 161° |
| 2026-05-04 05:14 | 27.18815 | 105.95149 | 41228 ft | 530 kts | 161° |
| 2026-05-04 05:14 | 27.12167 | 105.98713 | 41229 ft | 529 kts | 161° |
| 2026-05-04 05:15 | 27.05662 | 106.02674 | 41228 ft | 539 kts | 150° |
| 2026-05-04 05:15 | 27.02786 | 106.05419 | 41229 ft | 548 kts | 139° |
| 2026-05-04 05:15 | 27.00280 | 106.08653 | 41226 ft | 552 kts | 133° |
| 2026-05-04 05:16 | 26.95595 | 106.15495 | 41222 ft | 554 kts | 131° |
| 2026-05-04 05:16 | 26.91015 | 106.22433 | 41210 ft | 553 kts | 131° |
| 2026-05-04 05:17 | 26.86439 | 106.29297 | 41215 ft | 553 kts | 131° |
| 2026-05-04 05:17 | 26.81806 | 106.36165 | 41214 ft | 552 kts | 131° |
| 2026-05-04 05:18 | 26.77169 | 106.43007 | 41210 ft | 551 kts | 131° |
| 2026-05-04 05:18 | 26.72529 | 106.49842 | 41211 ft | 551 kts | 131° |
| 2026-05-04 05:19 | 26.67897 | 106.56658 | 41212 ft | 550 kts | 131° |
| 2026-05-04 05:19 | 26.63257 | 106.63477 | 41211 ft | 550 kts | 132° |
| 2026-05-04 05:20 | 26.58630 | 106.70269 | 41211 ft | 550 kts | 132° |
| 2026-05-04 05:20 | 26.53990 | 106.77067 | 41211 ft | 550 kts | 131° |
| 2026-05-04 05:21 | 26.48871 | 106.83320 | 41211 ft | 543 kts | 140° |
| 2026-05-04 05:21 | 26.43512 | 106.89260 | 41211 ft | 543 kts | 141° |
| 2026-05-04 05:22 | 26.38119 | 106.95146 | 41211 ft | 543 kts | 141° |
| 2026-05-04 05:22 | 26.32719 | 107.01043 | 41211 ft | 543 kts | 141° |
| 2026-05-04 05:23 | 26.27337 | 107.06939 | 41211 ft | 543 kts | 141° |
| 2026-05-04 05:23 | 26.21964 | 107.12846 | 41211 ft | 542 kts | 141° |
| 2026-05-04 05:24 | 26.16598 | 107.18736 | 41210 ft | 541 kts | 141° |
| 2026-05-04 05:24 | 26.11269 | 107.24576 | 41212 ft | 541 kts | 141° |
| 2026-05-04 05:25 | 26.05892 | 107.30460 | 41210 ft | 541 kts | 141° |
| 2026-05-04 05:25 | 26.00517 | 107.36335 | 41205 ft | 541 kts | 141° |
| 2026-05-04 05:26 | 25.95176 | 107.42163 | 41201 ft | 539 kts | 141° |
| 2026-05-04 05:26 | 25.89834 | 107.47988 | 41194 ft | 538 kts | 141° |
| 2026-05-04 05:28 | 25.68453 | 107.71234 | 41184 ft | 538 kts | 141° |
| 2026-05-04 05:29 | 25.63114 | 107.77083 | 41173 ft | 539 kts | 141° |
| 2026-05-04 05:29 | 25.57777 | 107.82928 | 41176 ft | 538 kts | 141° |
| 2026-05-04 05:31 | 25.36740 | 107.97502 | 41154 ft | 495 kts | 180° |
| 2026-05-04 05:31 | 25.33323 | 107.97962 | 41156 ft | 495 kts | 181° |
| 2026-05-04 05:32 | 25.26480 | 107.98734 | 41146 ft | 494 kts | 182° |
| 2026-05-04 05:33 | 25.16249 | 107.99906 | 41147 ft | 495 kts | 181° |
| 2026-05-04 05:33 | 25.09398 | 108.00734 | 41140 ft | 494 kts | 181° |
| 2026-05-04 05:34 | 25.02563 | 108.01570 | 41140 ft | 494 kts | 181° |
| 2026-05-04 05:34 | 24.95725 | 108.02402 | 41138 ft | 494 kts | 181° |
| 2026-05-04 05:35 | 24.88922 | 108.03228 | 41140 ft | 494 kts | 181° |
| 2026-05-04 05:35 | 24.82086 | 108.04056 | 41132 ft | 494 kts | 181° |
| 2026-05-04 05:36 | 24.75232 | 108.04888 | 41130 ft | 494 kts | 181° |
| 2026-05-04 05:36 | 24.68396 | 108.05716 | 41129 ft | 494 kts | 180° |
| 2026-05-04 05:37 | 24.61565 | 108.06542 | 41127 ft | 494 kts | 180° |
| 2026-05-04 05:37 | 24.54776 | 108.07362 | 41132 ft | 494 kts | 180° |
| 2026-05-04 05:38 | 24.44532 | 108.08610 | 41111 ft | 493 kts | 180° |
| 2026-05-04 05:38 | 24.37711 | 108.09435 | 41122 ft | 493 kts | 180° |
| 2026-05-04 05:39 | 24.27469 | 108.10677 | 41111 ft | 494 kts | 180° |
| 2026-05-04 05:40 | 24.17219 | 108.11922 | 41105 ft | 494 kts | 180° |
| 2026-05-04 05:40 | 24.10377 | 108.12750 | 41120 ft | 494 kts | 180° |
| 2026-05-04 05:41 | 24.03542 | 108.13577 | 41110 ft | 494 kts | 180° |
| 2026-05-04 05:41 | 23.96748 | 108.14398 | 41106 ft | 494 kts | 180° |
| 2026-05-04 05:42 | 23.89949 | 108.15792 | 41108 ft | 505 kts | 167° |
| 2026-05-04 05:42 | 23.83662 | 108.19424 | 41107 ft | 521 kts | 146° |
| 2026-05-04 05:43 | 23.81002 | 108.22150 | 41116 ft | 528 kts | 135° |
| 2026-05-04 05:43 | 23.78817 | 108.25406 | 41118 ft | 534 kts | 123° |
| 2026-05-04 05:43 | 23.77209 | 108.29069 | 41111 ft | 538 kts | 111° |
| 2026-05-04 05:45 | 23.79668 | 108.56974 | 41120 ft | 542 kts | 90° |
| 2026-05-04 05:47 | 23.77838 | 108.89903 | 41113 ft | 544 kts | 94° |
| 2026-05-04 05:47 | 23.77341 | 108.98146 | 41112 ft | 544 kts | 94° |
| 2026-05-04 05:48 | 23.76842 | 109.06399 | 41105 ft | 545 kts | 94° |
| 2026-05-04 05:48 | 23.76214 | 109.14639 | 41107 ft | 545 kts | 101° |
| 2026-05-04 05:49 | 23.74752 | 109.22745 | 41114 ft | 544 kts | 104° |
| 2026-05-04 05:49 | 23.73122 | 109.30819 | 41110 ft | 545 kts | 104° |
| 2026-05-04 05:51 | 23.66536 | 109.63126 | 41103 ft | 547 kts | 104° |
| 2026-05-04 05:52 | 23.64869 | 109.71238 | 41103 ft | 548 kts | 104° |
| 2026-05-04 05:52 | 23.63189 | 109.79357 | 41114 ft | 548 kts | 104° |
| 2026-05-04 05:54 | 23.56440 | 110.11800 | 41115 ft | 548 kts | 105° |
| 2026-05-04 05:55 | 23.54744 | 110.19895 | 41103 ft | 548 kts | 105° |
| 2026-05-04 05:55 | 23.53043 | 110.27995 | 41101 ft | 548 kts | 105° |
| 2026-05-04 05:56 | 23.51349 | 110.36043 | 41100 ft | 547 kts | 105° |
| 2026-05-04 05:56 | 23.49683 | 110.44134 | 41104 ft | 547 kts | 104° |
| 2026-05-04 05:57 | 23.48047 | 110.52232 | 41105 ft | 547 kts | 104° |
| 2026-05-04 05:57 | 23.46406 | 110.60321 | 41092 ft | 547 kts | 104° |
| 2026-05-04 05:58 | 23.44750 | 110.68431 | 41096 ft | 547 kts | 104° |
| 2026-05-04 05:58 | 23.43085 | 110.76515 | 41095 ft | 547 kts | 105° |
| 2026-05-04 05:59 | 23.41383 | 110.84577 | 41093 ft | 546 kts | 105° |
| 2026-05-04 05:59 | 23.39957 | 110.91280 | 41084 ft | 546 kts | 105° |
| 2026-05-04 06:00 | 23.38245 | 110.99339 | 41083 ft | 546 kts | 105° |
| 2026-05-04 06:00 | 23.36535 | 111.07387 | 41083 ft | 546 kts | 105° |
| 2026-05-04 06:01 | 23.34823 | 111.15431 | 41081 ft | 546 kts | 105° |
| 2026-05-04 06:03 | 23.28219 | 111.47678 | 41082 ft | 547 kts | 104° |
| 2026-05-04 06:05 | 23.20559 | 111.83952 | 41073 ft | 546 kts | 105° |
| 2026-05-04 06:06 | 23.18887 | 111.91951 | 41067 ft | 546 kts | 104° |
| 2026-05-04 06:06 | 23.17212 | 112.00049 | 41065 ft | 546 kts | 104° |
| 2026-05-04 06:07 | 23.15549 | 112.08040 | 41065 ft | 545 kts | 104° |
| 2026-05-04 06:07 | 23.13868 | 112.16073 | 41064 ft | 545 kts | 104° |
| 2026-05-04 06:08 | 23.12182 | 112.24109 | 41063 ft | 545 kts | 104° |
| 2026-05-04 06:08 | 23.10495 | 112.32125 | 41064 ft | 544 kts | 104° |
| 2026-05-04 06:09 | 23.08802 | 112.40150 | 41065 ft | 544 kts | 104° |
| 2026-05-04 06:11 | 23.05393 | 112.72401 | 41074 ft | 545 kts | 95° |
| 2026-05-04 06:13 | 23.03136 | 113.05183 | 41071 ft | 544 kts | 96° |
| 2026-05-04 06:14 | 22.91521 | 113.24190 | 41074 ft | 505 kts | 161° |
| 2026-05-04 06:14 | 22.88259 | 113.25509 | 41061 ft | 496 kts | 171° |
| 2026-05-04 06:15 | 22.84919 | 113.26227 | 40583 ft | 484 kts | 181° |
| 2026-05-04 06:15 | 22.81572 | 113.26706 | 39873 ft | 489 kts | 176° |
| 2026-05-04 06:15 | 22.78224 | 113.27544 | 39242 ft | 493 kts | 172° |
| 2026-05-04 06:15 | 22.74913 | 113.28542 | 38625 ft | 493 kts | 171° |
| 2026-05-04 06:16 | 22.71668 | 113.29586 | 38018 ft | 493 kts | 170° |
| 2026-05-04 06:16 | 22.68386 | 113.30691 | 37395 ft | 492 kts | 169° |
| 2026-05-04 06:16 | 22.65135 | 113.31812 | 36755 ft | 491 kts | 169° |
| 2026-05-04 06:16 | 22.61885 | 113.32945 | 36074 ft | 491 kts | 169° |
| 2026-05-04 06:17 | 22.58639 | 113.34082 | 35328 ft | 491 kts | 169° |
| 2026-05-04 06:17 | 22.55370 | 113.35218 | 34503 ft | 494 kts | 169° |
| 2026-05-04 06:17 | 22.52093 | 113.36352 | 33667 ft | 496 kts | 169° |
| 2026-05-04 06:17 | 22.48796 | 113.37489 | 32805 ft | 499 kts | 169° |
| 2026-05-04 06:18 | 22.45479 | 113.38631 | 31918 ft | 501 kts | 168° |
| 2026-05-04 06:18 | 22.42153 | 113.39774 | 30998 ft | 502 kts | 168° |
| 2026-05-04 06:18 | 22.38813 | 113.40925 | 30045 ft | 504 kts | 168° |
| 2026-05-04 06:20 | 22.15999 | 113.48900 | 25270 ft | 475 kts | 166° |
| 2026-05-04 06:20 | 22.12961 | 113.50029 | 25152 ft | 459 kts | 166° |
| 2026-05-04 06:21 | 22.01573 | 113.54188 | 24337 ft | 410 kts | 169° |
| 2026-05-04 06:21 | 21.98795 | 113.54612 | 23781 ft | 398 kts | 187° |
| 2026-05-04 06:22 | 21.96131 | 113.54110 | 23302 ft | 384 kts | 204° |
| 2026-05-04 06:22 | 21.93692 | 113.53011 | 22847 ft | 377 kts | 208° |
| 2026-05-04 06:25 | 21.65277 | 113.44930 | 18250 ft | 347 kts | 140° |
| 2026-05-04 06:25 | 21.63596 | 113.46785 | 17828 ft | 346 kts | 139° |
| 2026-05-04 06:26 | 21.61921 | 113.48638 | 17425 ft | 344 kts | 139° |
| 2026-05-04 06:26 | 21.60247 | 113.50470 | 16940 ft | 343 kts | 139° |
| 2026-05-04 06:26 | 21.58571 | 113.52292 | 16519 ft | 342 kts | 140° |
| 2026-05-04 06:26 | 21.56922 | 113.54080 | 16112 ft | 340 kts | 139° |
| 2026-05-04 06:27 | 21.56538 | 113.63173 | 14681 ft | 340 kts | 40° |
| 2026-05-04 06:28 | 21.58482 | 113.64565 | 14348 ft | 334 kts | 26° |
| 2026-05-04 06:28 | 21.60376 | 113.66015 | 14004 ft | 334 kts | 38° |
| 2026-05-04 06:28 | 21.62107 | 113.67681 | 13663 ft | 333 kts | 41° |
| 2026-05-04 06:28 | 21.63782 | 113.69392 | 13332 ft | 331 kts | 42° |
| 2026-05-04 06:29 | 21.65428 | 113.71108 | 13027 ft | 329 kts | 43° |
| 2026-05-04 06:29 | 21.67100 | 113.72778 | 12684 ft | 327 kts | 40° |
| 2026-05-04 06:29 | 21.68793 | 113.74393 | 12344 ft | 324 kts | 39° |
| 2026-05-04 06:29 | 21.70474 | 113.76004 | 12017 ft | 322 kts | 40° |
| 2026-05-04 06:30 | 21.72132 | 113.77607 | 11688 ft | 320 kts | 40° |
| 2026-05-04 06:30 | 21.73776 | 113.79205 | 11371 ft | 318 kts | 40° |
| 2026-05-04 06:30 | 21.75409 | 113.80797 | 11049 ft | 316 kts | 40° |
| 2026-05-04 06:30 | 21.77029 | 113.82387 | 10736 ft | 315 kts | 40° |
| 2026-05-04 06:31 | 21.78652 | 113.83975 | 10414 ft | 315 kts | 40° |
| 2026-05-04 06:31 | 21.80276 | 113.85559 | 10105 ft | 314 kts | 40° |
| 2026-05-04 06:31 | 21.81891 | 113.87135 | 9783 ft | 312 kts | 40° |
| 2026-05-04 06:31 | 21.83559 | 113.88602 | 9476 ft | 308 kts | 30° |
| 2026-05-04 06:32 | 21.85529 | 113.89361 | 9170 ft | 298 kts | 2° |
| 2026-05-04 06:33 | 21.98275 | 113.83772 | 7176 ft | 282 kts | 333° |
| 2026-05-04 06:34 | 22.00054 | 113.82885 | 6899 ft | 281 kts | 333° |
| 2026-05-04 06:34 | 22.01827 | 113.82003 | 6618 ft | 280 kts | 334° |
| 2026-05-04 06:34 | 22.03593 | 113.81123 | 6337 ft | 279 kts | 334° |
| 2026-05-04 06:34 | 22.05353 | 113.80244 | 6057 ft | 278 kts | 334° |
| 2026-05-04 06:35 | 22.07110 | 113.79365 | 5781 ft | 278 kts | 335° |
| 2026-05-04 06:36 | 22.18924 | 113.73472 | 4116 ft | 243 kts | 337° |
| 2026-05-04 06:37 | 22.20404 | 113.72731 | 3899 ft | 226 kts | 338° |
| 2026-05-04 06:37 | 22.21784 | 113.72046 | 3663 ft | 211 kts | 339° |
| 2026-05-04 06:37 | 22.23133 | 113.71663 | 3408 ft | 192 kts | 5° |
| 2026-05-04 06:37 | 22.24348 | 113.72102 | 3127 ft | 183 kts | 38° |
| 2026-05-04 06:38 | 22.25327 | 113.72967 | 3002 ft | 183 kts | 43° |
| 2026-05-04 06:38 | 22.26283 | 113.73881 | 2987 ft | 183 kts | 43° |
| 2026-05-04 06:40 | 22.30069 | 113.81738 | 1305 ft | 160 kts | 72° |
| 2026-05-04 06:40 | 22.30428 | 113.82850 | 1087 ft | 154 kts | 72° |
| 2026-05-04 06:40 | 22.30771 | 113.83923 | 886 ft | 148 kts | 69° |
| 2026-05-04 06:40 | 22.31102 | 113.84946 | 692 ft | 142 kts | 69° |
| 2026-05-04 06:41 | 22.31423 | 113.85945 | 507 ft | 141 kts | 69° |
| 2026-05-04 06:41 | 22.31744 | 113.86947 | 318 ft | 141 kts | 69° |
| 2026-05-04 06:41 | 22.32064 | 113.87940 | 137 ft | 140 kts | 69° |
| 2026-05-04 06:41 | 22.32376 | 113.88912 | 44 ft | 128 kts | 71° |
| 2026-05-04 06:42 | 22.32596 | 113.89600 | 43 ft | 56 kts | 71° |
| 2026-05-04 06:42 | 22.32640 | 113.89726 | 44 ft | 1 kts | 55° |
| 2026-05-04 06:42 | 22.32683 | 113.89846 | 44 ft | 21 kts | 69° |
| 2026-05-04 06:44 | 22.31913 | 113.90637 | 43 ft | 31 kts | 161° |
| 2026-05-04 06:44 | 22.31706 | 113.90712 | 43 ft | 27 kts | 161° |
| 2026-05-04 06:44 | 22.31614 | 113.90820 | 43 ft | 19 kts | 94° |
| 2026-05-04 06:45 | 22.31636 | 113.90965 | 44 ft | 20 kts | 68° |
| 2026-05-04 06:45 | 22.31692 | 113.91116 | 44 ft | 23 kts | 66° |
| 2026-05-04 06:45 | 22.31760 | 113.91277 | 44 ft | 24 kts | 64° |
| 2026-05-04 06:45 | 22.31813 | 113.91452 | 43 ft | 26 kts | 71° |
| 2026-05-04 06:46 | 22.31875 | 113.91637 | 43 ft | 27 kts | 71° |
| 2026-05-04 06:46 | 22.31936 | 113.91837 | 43 ft | 29 kts | 72° |
| 2026-05-04 06:46 | 22.32000 | 113.92049 | 44 ft | 30 kts | 72° |
| 2026-05-04 06:46 | 22.32080 | 113.92265 | 44 ft | 31 kts | 68° |
| 2026-05-04 06:48 | 22.31821 | 113.92802 | 43 ft | 19 kts | 198° |
| 2026-05-04 06:48 | 22.31749 | 113.92687 | 43 ft | 20 kts | 249° |
| 2026-05-04 06:49 | 22.31701 | 113.92539 | 43 ft | 22 kts | 251° |
| 2026-05-04 06:50 | 22.30923 | 113.92287 | 43 ft | 15 kts | 159° |
| 2026-05-04 06:51 | 22.30814 | 113.92331 | 42 ft | 18 kts | 159° |
| 2026-05-04 06:51 | 22.30762 | 113.92393 | 43 ft | 17 kts | 105° |
| 2026-05-04 06:51 | 22.30777 | 113.92523 | 43 ft | 19 kts | 70° |
| 2026-05-04 06:51 | 22.30834 | 113.92654 | 43 ft | 19 kts | 72° |
| 2026-05-04 06:52 | 22.30876 | 113.92800 | 43 ft | 22 kts | 73° |
| 2026-05-04 06:52 | 22.30920 | 113.92955 | 43 ft | 18 kts | 72° |
| 2026-05-04 06:52 | 22.30969 | 113.93089 | 43 ft | 20 kts | 58° |
| 2026-05-04 06:52 | 22.31083 | 113.93119 | 42 ft | 18 kts | 346° |
| 2026-05-04 06:53 | 22.31203 | 113.93094 | 43 ft | 14 kts | 23° |
| 2026-05-04 06:53 | 22.31292 | 113.93142 | 43 ft | 13 kts | 2° |
| 2026-05-04 06:53 | 22.31340 | 113.93130 | 41 ft | 2 kts | 343° |
| 2026-05-04 06:53 | 22.31350 | 113.93126 | 43 ft | 0 kts | 342° |